createdAt,value
2022-10-23T00:00:02.566Z,1019.3
2022-10-23T00:01:02.378Z,1019.3
2022-10-23T00:02:02.243Z,1019.4
2022-10-23T00:03:02.060Z,1019.4
2022-10-23T00:04:01.983Z,1019.4
2022-10-23T00:05:02.069Z,1019.4
2022-10-23T00:06:02.022Z,1019.4
2022-10-23T00:07:01.943Z,1019.4
2022-10-23T00:08:01.838Z,1019.4
2022-10-23T00:09:01.816Z,1019.4
2022-10-23T00:10:02.755Z,1019.4
2022-10-23T00:11:02.681Z,1019.4
2022-10-23T00:12:02.634Z,1019.5
2022-10-23T00:13:02.539Z,1019.5
2022-10-23T00:14:02.491Z,1019.5
2022-10-23T00:15:02.459Z,1019.5
2022-10-23T00:16:02.340Z,1019.5
2022-10-23T00:17:02.521Z,1019.5
2022-10-23T00:18:02.539Z,1019.4
2022-10-23T00:19:02.478Z,1019.5
2022-10-23T00:20:02.424Z,1019.5
2022-10-23T00:21:02.371Z,1019.5
2022-10-23T00:22:02.298Z,1019.6
2022-10-23T00:23:02.234Z,1019.5
2022-10-23T00:24:02.321Z,1019.5
2022-10-23T00:25:02.145Z,1019.5
2022-10-23T00:26:02.073Z,1019.5
2022-10-23T00:27:01.996Z,1019.5
2022-10-23T00:28:01.912Z,1019.5
2022-10-23T00:29:01.864Z,1019.5
2022-10-23T00:30:01.809Z,1019.5
2022-10-23T00:31:02.701Z,1019.5
2022-10-23T00:32:02.671Z,1019.5
2022-10-23T00:33:02.705Z,1019.5
2022-10-23T00:34:02.570Z,1019.4
2022-10-23T00:35:02.520Z,1019.5
2022-10-23T00:36:02.431Z,1019.5
2022-10-23T00:37:02.372Z,1019.4
2022-10-23T00:38:02.327Z,1019.4
2022-10-23T00:39:02.285Z,1019.4
2022-10-23T00:40:02.256Z,1019.5
2022-10-23T00:41:02.188Z,1019.5
2022-10-23T00:42:02.138Z,1019.5
2022-10-23T00:43:02.080Z,1019.5
2022-10-23T00:44:02.175Z,1019.5
2022-10-23T00:45:01.943Z,1019.5
2022-10-23T00:46:01.918Z,1019.5
2022-10-23T00:47:02.703Z,1019.4
2022-10-23T00:48:02.666Z,1019.4
2022-10-23T00:49:02.863Z,1019.3
2022-10-23T00:50:02.687Z,1019.3
2022-10-23T00:51:02.786Z,1019.3
2022-10-23T00:52:02.663Z,1019.3
2022-10-23T00:53:02.597Z,1019.3
2022-10-23T00:54:25.620Z,1019.3
2022-10-23T00:55:02.525Z,1019.4
2022-10-23T00:56:02.512Z,1019.4
2022-10-23T00:57:02.419Z,1019.4
2022-10-23T00:58:02.439Z,1019.4
2022-10-23T00:59:02.360Z,1019.5
2022-10-23T01:00:02.298Z,1019.5
2022-10-23T01:01:02.357Z,1019.5
2022-10-23T01:02:02.609Z,1019.5
2022-10-23T01:03:02.491Z,1019.5
2022-10-23T01:04:02.453Z,1019.5
2022-10-23T01:05:02.406Z,1019.5
2022-10-23T01:06:02.307Z,1019.5
2022-10-23T01:07:02.251Z,1019.5
2022-10-23T01:08:02.168Z,1019.5
2022-10-23T01:09:02.082Z,1019.4
2022-10-23T01:10:01.974Z,1019.5
2022-10-23T01:11:01.891Z,1019.5
2022-10-23T01:12:01.820Z,1019.6
2022-10-23T01:13:01.751Z,1019.5
2022-10-23T01:14:04.752Z,1019.5
2022-10-23T01:15:02.562Z,1019.6
2022-10-23T01:16:02.487Z,1019.6
2022-10-23T01:17:02.333Z,1019.6
2022-10-23T01:18:02.277Z,1019.6
2022-10-23T01:19:02.190Z,1019.6
2022-10-23T01:20:02.099Z,1019.6
2022-10-23T01:21:02.061Z,1019.6
2022-10-23T01:22:01.985Z,1019.6
2022-10-23T01:23:01.891Z,1019.6
2022-10-23T01:24:01.825Z,1019.6
2022-10-23T01:25:01.719Z,1019.6
2022-10-23T01:26:02.707Z,1019.6
2022-10-23T01:27:02.638Z,1019.6
2022-10-23T01:28:02.579Z,1019.6
2022-10-23T01:29:02.528Z,1019.6
2022-10-23T01:30:02.466Z,1019.6
2022-10-23T01:31:02.373Z,1019.6
2022-10-23T01:32:02.070Z,1019.7
2022-10-23T01:33:01.944Z,1019.6
2022-10-23T01:34:01.842Z,1019.6
2022-10-23T01:35:01.807Z,1019.6
2022-10-23T01:36:02.800Z,1019.5
2022-10-23T01:37:02.610Z,1019.6
2022-10-23T01:38:02.631Z,1019.6
2022-10-23T01:39:05.685Z,1019.6
2022-10-23T01:40:02.501Z,1019.5
2022-10-23T01:41:02.416Z,1019.6
2022-10-23T01:42:02.393Z,1019.6
2022-10-23T01:43:02.327Z,1019.6
2022-10-23T01:44:02.195Z,1019.6
2022-10-23T01:45:02.074Z,1019.6
2022-10-23T01:46:02.037Z,1019.7
2022-10-23T01:47:01.925Z,1019.6
2022-10-23T01:48:01.832Z,1019.7
2022-10-23T01:49:01.789Z,1019.7
2022-10-23T01:50:02.712Z,1019.7
2022-10-23T01:51:02.736Z,1019.7
2022-10-23T01:52:02.676Z,1019.7
2022-10-23T01:53:02.565Z,1019.6
2022-10-23T01:54:02.452Z,1019.6
2022-10-23T01:55:02.417Z,1019.6
2022-10-23T01:56:02.370Z,1019.7
2022-10-23T01:57:02.295Z,1019.7
2022-10-23T01:58:02.208Z,1019.7
2022-10-23T01:59:02.154Z,1019.6
2022-10-23T02:00:02.130Z,1019.7
2022-10-23T02:01:02.297Z,1019.7
2022-10-23T02:02:02.555Z,1019.7
2022-10-23T02:03:02.396Z,1019.7
2022-10-23T02:04:02.349Z,1019.6
2022-10-23T02:05:02.331Z,1019.6
2022-10-23T02:06:02.228Z,1019.6
2022-10-23T02:07:02.176Z,1019.6
2022-10-23T02:08:02.278Z,1019.6
2022-10-23T02:09:02.145Z,1019.6
2022-10-23T02:10:02.122Z,1019.7
2022-10-23T02:11:02.056Z,1019.7
2022-10-23T02:12:01.958Z,1019.6
2022-10-23T02:13:01.873Z,1019.6
2022-10-23T02:14:01.784Z,1019.7
2022-10-23T02:15:02.756Z,1019.6
2022-10-23T02:16:02.714Z,1019.7
2022-10-23T02:17:02.457Z,1019.7
2022-10-23T02:18:02.487Z,1019.7
2022-10-23T02:19:02.417Z,1019.7
2022-10-23T02:20:02.365Z,1019.8
2022-10-23T02:21:02.304Z,1019.7
2022-10-23T02:22:02.236Z,1019.7
2022-10-23T02:23:02.230Z,1019.8
2022-10-23T02:24:02.148Z,1019.8
2022-10-23T02:25:02.041Z,1019.7
2022-10-23T02:26:01.972Z,1019.7
2022-10-23T02:27:01.883Z,1019.8
2022-10-23T02:28:01.802Z,1019.9
2022-10-23T02:29:01.931Z,1019.8
2022-10-23T02:30:02.739Z,1019.7
2022-10-23T02:31:02.692Z,1019.8
2022-10-23T02:32:02.708Z,1019.8
2022-10-23T02:33:02.575Z,1019.8
2022-10-23T02:34:02.502Z,1019.8
2022-10-23T02:35:02.441Z,1019.9
2022-10-23T02:36:02.377Z,1019.9
2022-10-23T02:37:02.277Z,1019.9
2022-10-23T02:38:02.165Z,1019.9
2022-10-23T02:39:02.251Z,1020
2022-10-23T02:40:02.051Z,1019.9
2022-10-23T02:41:01.953Z,1019.9
2022-10-23T02:42:01.988Z,1019.9
2022-10-23T02:43:01.867Z,1020
2022-10-23T02:44:01.799Z,1019.9
2022-10-23T02:45:01.773Z,1019.9
2022-10-23T02:46:02.755Z,1019.9
2022-10-23T02:47:02.328Z,1019.9
2022-10-23T02:48:02.267Z,1019.9
2022-10-23T02:49:02.117Z,1020
2022-10-23T02:50:02.013Z,1020
2022-10-23T02:51:01.930Z,1019.9
2022-10-23T02:52:01.854Z,1019.9
2022-10-23T02:53:01.778Z,1019.9
2022-10-23T02:54:02.836Z,1019.9
2022-10-23T02:55:02.708Z,1019.9
2022-10-23T02:56:02.656Z,1019.9
2022-10-23T02:57:02.547Z,1019.9
2022-10-23T02:58:02.502Z,1019.9
2022-10-23T02:59:02.440Z,1019.9
2022-10-23T03:00:02.353Z,1019.8
2022-10-23T03:01:02.480Z,1019.9
2022-10-23T03:02:02.867Z,1019.8
2022-10-23T03:03:01.840Z,1019.9
2022-10-23T03:04:01.779Z,1019.8
2022-10-23T03:05:01.769Z,1019.8
2022-10-23T03:06:02.748Z,1019.8
2022-10-23T03:07:02.713Z,1019.8
2022-10-23T03:08:02.663Z,1019.9
2022-10-23T03:09:02.592Z,1019.8
2022-10-23T03:10:02.665Z,1019.8
2022-10-23T03:11:02.591Z,1019.8
2022-10-23T03:12:02.530Z,1019.8
2022-10-23T03:13:02.469Z,1019.9
2022-10-23T03:14:02.396Z,1019.9
2022-10-23T03:15:02.362Z,1019.9
2022-10-23T03:16:02.293Z,1019.9
2022-10-23T03:17:01.914Z,1019.9
2022-10-23T03:18:01.841Z,1019.9
2022-10-23T03:19:02.102Z,1019.9
2022-10-23T03:20:01.940Z,1019.9
2022-10-23T03:21:01.839Z,1019.9
2022-10-23T03:22:01.786Z,1019.9
2022-10-23T03:23:02.750Z,1020
2022-10-23T03:24:02.708Z,1020
2022-10-23T03:25:02.654Z,1020
2022-10-23T03:26:02.670Z,1020
2022-10-23T03:27:02.673Z,1019.9
2022-10-23T03:28:02.567Z,1020
2022-10-23T03:29:02.494Z,1020
2022-10-23T03:30:02.451Z,1020
2022-10-23T03:31:02.419Z,1020
2022-10-23T03:32:02.340Z,1020
2022-10-23T03:33:02.236Z,1020
2022-10-23T03:34:08.478Z,1020
2022-10-23T03:35:02.340Z,1020
2022-10-23T03:36:02.225Z,1020
2022-10-23T03:37:02.142Z,1020
2022-10-23T03:38:02.066Z,1020
2022-10-23T03:39:01.993Z,1020
2022-10-23T03:40:01.891Z,1020.1
2022-10-23T03:41:01.812Z,1020.1
2022-10-23T03:42:02.850Z,1020
2022-10-23T03:43:02.704Z,1020.1
2022-10-23T03:44:02.708Z,1020.1
2022-10-23T03:45:02.572Z,1020.1
2022-10-23T03:46:02.518Z,1020.1
2022-10-23T03:47:02.234Z,1020.1
2022-10-23T03:48:02.150Z,1020.1
2022-10-23T03:49:02.071Z,1020
2022-10-23T03:50:02.010Z,1020
2022-10-23T03:51:01.949Z,1020
2022-10-23T03:52:01.846Z,1020.1
2022-10-23T03:53:01.790Z,1020.1
2022-10-23T03:54:02.726Z,1020.1
2022-10-23T03:55:02.694Z,1020.1
2022-10-23T03:56:02.616Z,1020
2022-10-23T03:57:02.553Z,1020.1
2022-10-23T03:58:02.521Z,1020.1
2022-10-23T03:59:02.469Z,1020.1
2022-10-23T04:00:02.314Z,1020.2
2022-10-23T04:01:02.419Z,1020.2
2022-10-23T04:02:03.031Z,1020.1
2022-10-23T04:03:02.033Z,1020.2
2022-10-23T04:04:01.942Z,1020.1
2022-10-23T04:05:01.827Z,1020.2
2022-10-23T04:06:01.754Z,1020.1
2022-10-23T04:07:02.734Z,1020.1
2022-10-23T04:08:02.710Z,1020.1
2022-10-23T04:09:02.915Z,1020.1
2022-10-23T04:10:02.747Z,1020.1
2022-10-23T04:11:01.762Z,1020.1
2022-10-23T04:12:02.726Z,1020.1
2022-10-23T04:13:02.690Z,1020
2022-10-23T04:14:02.657Z,1020
2022-10-23T04:15:02.679Z,1020
2022-10-23T04:16:02.567Z,1020
2022-10-23T04:17:02.401Z,1020
2022-10-23T04:18:02.348Z,1020
2022-10-23T04:19:02.296Z,1019.9
2022-10-23T04:20:02.238Z,1019.9
2022-10-23T04:21:02.080Z,1019.9
2022-10-23T04:22:02.031Z,1019.9
2022-10-23T04:23:01.910Z,1019.9
2022-10-23T04:24:01.899Z,1019.8
2022-10-23T04:25:01.800Z,1019.9
2022-10-23T04:26:01.774Z,1019.8
2022-10-23T04:27:02.728Z,1019.8
2022-10-23T04:28:02.689Z,1019.8
2022-10-23T04:29:02.647Z,1019.9
2022-10-23T04:30:02.557Z,1019.9
2022-10-23T04:31:02.516Z,1019.9
2022-10-23T04:32:02.442Z,1019.9
2022-10-23T04:33:02.394Z,1019.8
2022-10-23T04:34:02.478Z,1019.9
2022-10-23T04:35:02.263Z,1019.9
2022-10-23T04:36:02.185Z,1019.9
2022-10-23T04:37:02.119Z,1019.9
2022-10-23T04:38:02.050Z,1019.9
2022-10-23T04:39:01.952Z,1019.9
2022-10-23T04:40:01.839Z,1019.9
2022-10-23T04:41:01.772Z,1019.9
2022-10-23T04:42:02.691Z,1019.9
2022-10-23T04:43:02.730Z,1019.9
2022-10-23T04:44:02.610Z,1019.9
2022-10-23T04:45:02.603Z,1019.9
2022-10-23T04:46:02.503Z,1019.9
2022-10-23T04:47:02.404Z,1019.9
2022-10-23T04:48:02.324Z,1019.9
2022-10-23T04:49:02.287Z,1019.9
2022-10-23T04:50:02.220Z,1019.9
2022-10-23T04:51:02.168Z,1019.9
2022-10-23T04:52:02.080Z,1019.9
2022-10-23T04:53:01.964Z,1019.9
2022-10-23T04:54:01.879Z,1019.9
2022-10-23T04:55:01.921Z,1019.9
2022-10-23T04:56:01.783Z,1019.9
2022-10-23T04:57:02.701Z,1019.9
2022-10-23T04:58:02.678Z,1019.9
2022-10-23T04:59:02.817Z,1020
2022-10-23T05:00:02.710Z,1019.9
2022-10-23T05:01:02.229Z,1019.9
2022-10-23T05:02:02.759Z,1019.9
2022-10-23T05:03:02.704Z,1019.8
2022-10-23T05:04:02.622Z,1019.9
2022-10-23T05:05:02.554Z,1019.9
2022-10-23T05:06:02.452Z,1019.9
2022-10-23T05:07:02.426Z,1019.9
2022-10-23T05:08:02.371Z,1019.9
2022-10-23T05:09:02.259Z,1020
2022-10-23T05:10:02.191Z,1020
2022-10-23T05:11:02.109Z,1020
2022-10-23T05:12:02.032Z,1020
2022-10-23T05:13:01.891Z,1020
2022-10-23T05:14:01.837Z,1019.9
2022-10-23T05:15:01.794Z,1020
2022-10-23T05:16:01.762Z,1020
2022-10-23T05:17:02.610Z,1019.9
2022-10-23T05:18:02.551Z,1020
2022-10-23T05:19:02.466Z,1020
2022-10-23T05:20:02.406Z,1020
2022-10-23T05:21:02.350Z,1019.9
2022-10-23T05:22:02.226Z,1020
2022-10-23T05:23:02.152Z,1020
2022-10-23T05:24:02.456Z,1020
2022-10-23T05:25:02.266Z,1020
2022-10-23T05:26:02.159Z,1020.1
2022-10-23T05:27:02.049Z,1020.1
2022-10-23T05:28:01.921Z,1020
2022-10-23T05:29:01.812Z,1020
2022-10-23T05:30:01.786Z,1020
2022-10-23T05:31:01.758Z,1020
2022-10-23T05:32:02.608Z,1020.1
2022-10-23T05:33:02.505Z,1020.1
2022-10-23T05:34:02.445Z,1020.1
2022-10-23T05:35:02.379Z,1020.1
2022-10-23T05:36:02.274Z,1020.2
2022-10-23T05:37:02.179Z,1020.2
2022-10-23T05:38:02.131Z,1020.2
2022-10-23T05:39:02.064Z,1020.2
2022-10-23T05:40:01.979Z,1020.2
2022-10-23T05:41:01.841Z,1020.2
2022-10-23T05:42:01.848Z,1020.2
2022-10-23T05:43:01.811Z,1020.2
2022-10-23T05:44:01.837Z,1020.2
2022-10-23T05:45:01.797Z,1020.2
2022-10-23T05:46:01.757Z,1020.3
2022-10-23T05:47:02.665Z,1020.2
2022-10-23T05:48:29.936Z,1020.3
2022-10-23T05:49:02.464Z,1020.3
2022-10-23T05:50:02.378Z,1020.4
2022-10-23T05:51:02.296Z,1020.3
2022-10-23T05:52:02.229Z,1020.4
2022-10-23T05:53:02.086Z,1020.4
2022-10-23T05:54:02.039Z,1020.4
2022-10-23T05:55:01.947Z,1020.4
2022-10-23T05:56:01.869Z,1020.4
2022-10-23T05:57:01.796Z,1020.5
2022-10-23T05:58:01.788Z,1020.5
2022-10-23T05:59:02.753Z,1020.5
2022-10-23T06:00:02.729Z,1020.5
2022-10-23T06:01:02.434Z,1020.5
2022-10-23T06:02:03.006Z,1020.5
2022-10-23T06:03:01.854Z,1020.5
2022-10-23T06:04:01.855Z,1020.5
2022-10-23T06:05:01.776Z,1020.5
2022-10-23T06:06:02.723Z,1020.5
2022-10-23T06:07:02.666Z,1020.5
2022-10-23T06:08:02.633Z,1020.6
2022-10-23T06:09:02.560Z,1020.6
2022-10-23T06:10:02.543Z,1020.6
2022-10-23T06:11:02.465Z,1020.6
2022-10-23T06:12:02.544Z,1020.7
2022-10-23T06:13:02.328Z,1020.6
2022-10-23T06:14:02.277Z,1020.6
2022-10-23T06:15:02.152Z,1020.7
2022-10-23T06:16:02.025Z,1020.7
2022-10-23T06:17:02.101Z,1020.7
2022-10-23T06:18:01.862Z,1020.7
2022-10-23T06:19:01.855Z,1020.7
2022-10-23T06:20:01.830Z,1020.7
2022-10-23T06:21:02.741Z,1020.8
2022-10-23T06:22:02.683Z,1020.7
2022-10-23T06:23:02.614Z,1020.7
2022-10-23T06:24:02.561Z,1020.8
2022-10-23T06:25:02.528Z,1020.8
2022-10-23T06:26:02.447Z,1020.8
2022-10-23T06:27:02.436Z,1020.8
2022-10-23T06:28:02.375Z,1020.9
2022-10-23T06:29:02.261Z,1020.9
2022-10-23T06:30:02.164Z,1020.8
2022-10-23T06:31:02.079Z,1020.8
2022-10-23T06:32:01.939Z,1020.9
2022-10-23T06:33:06.909Z,1020.9
2022-10-23T06:34:02.714Z,1020.9
2022-10-23T06:35:02.652Z,1020.9
2022-10-23T06:36:02.569Z,1020.8
2022-10-23T06:37:02.499Z,1020.9
2022-10-23T06:38:02.445Z,1020.9
2022-10-23T06:39:02.413Z,1020.8
2022-10-23T06:40:02.263Z,1020.9
2022-10-23T06:41:02.196Z,1020.8
2022-10-23T06:42:02.127Z,1020.8
2022-10-23T06:43:02.101Z,1020.9
2022-10-23T06:44:02.068Z,1020.9
2022-10-23T06:45:07.668Z,1020.9
2022-10-23T06:46:02.431Z,1020.9
2022-10-23T06:47:01.814Z,1020.9
2022-10-23T06:48:01.769Z,1020.9
2022-10-23T06:49:02.826Z,1020.9
2022-10-23T06:50:02.653Z,1021
2022-10-23T06:51:02.599Z,1020.9
2022-10-23T06:52:02.517Z,1021
2022-10-23T06:53:02.443Z,1020.9
2022-10-23T06:54:02.388Z,1020.9
2022-10-23T06:55:02.338Z,1020.9
2022-10-23T06:56:02.241Z,1020.9
2022-10-23T06:57:02.103Z,1021
2022-10-23T06:58:02.173Z,1020.9
2022-10-23T06:59:02.008Z,1020.9
2022-10-23T07:00:02.007Z,1021
2022-10-23T07:01:02.514Z,1020.9
2022-10-23T07:02:02.335Z,1020.9
2022-10-23T07:03:02.208Z,1020.9
2022-10-23T07:04:02.373Z,1020.9
2022-10-23T07:05:02.246Z,1020.9
2022-10-23T07:06:02.120Z,1020.9
2022-10-23T07:07:02.075Z,1020.8
2022-10-23T07:08:01.967Z,1020.8
2022-10-23T07:09:01.869Z,1020.8
2022-10-23T07:10:02.025Z,1020.8
2022-10-23T07:11:01.823Z,1020.8
2022-10-23T07:12:01.764Z,1020.8
2022-10-23T07:13:02.725Z,1020.8
2022-10-23T07:14:02.653Z,1020.8
2022-10-23T07:15:02.637Z,1020.8
2022-10-23T07:16:02.545Z,1020.8
2022-10-23T07:17:02.488Z,1020.8
2022-10-23T07:18:02.415Z,1020.8
2022-10-23T07:19:02.366Z,1020.9
2022-10-23T07:20:02.300Z,1020.8
2022-10-23T07:21:02.241Z,1020.9
2022-10-23T07:22:02.203Z,1020.8
2022-10-23T07:23:02.109Z,1020.8
2022-10-23T07:24:02.080Z,1020.8
2022-10-23T07:25:02.006Z,1020.8
2022-10-23T07:26:01.878Z,1020.8
2022-10-23T07:27:01.790Z,1020.8
2022-10-23T07:28:02.753Z,1020.8
2022-10-23T07:29:02.739Z,1020.9
2022-10-23T07:30:02.877Z,1020.9
2022-10-23T07:31:02.674Z,1020.9
2022-10-23T07:32:02.281Z,1020.9
2022-10-23T07:33:02.245Z,1020.9
2022-10-23T07:34:02.181Z,1020.9
2022-10-23T07:35:02.244Z,1020.9
2022-10-23T07:36:02.032Z,1020.9
2022-10-23T07:37:02.017Z,1020.9
2022-10-23T07:38:01.967Z,1020.9
2022-10-23T07:39:01.854Z,1020.9
2022-10-23T07:40:01.787Z,1020.9
2022-10-23T07:41:01.776Z,1020.8
2022-10-23T07:42:02.744Z,1020.9
2022-10-23T07:43:02.694Z,1020.9
2022-10-23T07:44:02.636Z,1020.8
2022-10-23T07:45:02.618Z,1020.9
2022-10-23T07:46:02.469Z,1020.9
2022-10-23T07:47:02.457Z,1020.9
2022-10-23T07:48:02.400Z,1020.9
2022-10-23T07:49:02.291Z,1020.8
2022-10-23T07:50:02.201Z,1020.9
2022-10-23T07:51:02.646Z,1020.9
2022-10-23T07:53:02.387Z,1020.9
2022-10-23T07:54:02.321Z,1020.9
2022-10-23T07:55:02.273Z,1020.8
2022-10-23T07:56:02.242Z,1020.8
2022-10-23T07:57:02.141Z,1020.9
2022-10-23T07:58:02.129Z,1020.9
2022-10-23T07:59:02.072Z,1020.9
2022-10-23T08:00:01.975Z,1020.9
2022-10-23T08:01:02.021Z,1020.9
2022-10-23T08:02:02.312Z,1021
2022-10-23T08:03:02.129Z,1020.9
2022-10-23T08:04:02.197Z,1020.9
2022-10-23T08:05:02.129Z,1021
2022-10-23T08:06:02.090Z,1020.9
2022-10-23T08:07:02.091Z,1020.9
2022-10-23T08:08:02.043Z,1020.9
2022-10-23T08:09:07.496Z,1020.9
2022-10-23T08:10:02.265Z,1021
2022-10-23T08:11:02.241Z,1020.9
2022-10-23T08:12:02.161Z,1021
2022-10-23T08:13:02.075Z,1021
2022-10-23T08:14:01.968Z,1021
2022-10-23T08:15:01.958Z,1020.9
2022-10-23T08:16:01.863Z,1021
2022-10-23T08:18:02.703Z,1021
2022-10-23T08:19:02.575Z,1021
2022-10-23T08:20:03.014Z,1020.9
2022-10-23T08:21:01.831Z,1020.9
2022-10-23T08:22:02.730Z,1021
2022-10-23T08:23:02.661Z,1021
2022-10-23T08:24:02.664Z,1021
2022-10-23T08:25:02.595Z,1021
2022-10-23T08:26:02.484Z,1021
2022-10-23T08:27:02.434Z,1021
2022-10-23T08:28:06.756Z,1021
2022-10-23T08:29:02.570Z,1021
2022-10-23T08:30:02.519Z,1021
2022-10-23T08:31:02.407Z,1021
2022-10-23T08:32:02.180Z,1021
2022-10-23T08:33:02.133Z,1021
2022-10-23T08:34:02.101Z,1021
2022-10-23T08:35:02.047Z,1021
2022-10-23T08:36:01.972Z,1021
2022-10-23T08:37:01.871Z,1021
2022-10-23T08:38:01.764Z,1021
2022-10-23T08:39:02.695Z,1021
2022-10-23T08:40:02.671Z,1021
2022-10-23T08:41:02.584Z,1021.1
2022-10-23T08:42:02.757Z,1021.1
2022-10-23T08:43:02.585Z,1021.1
2022-10-23T08:44:02.522Z,1021.1
2022-10-23T08:45:02.490Z,1021.1
2022-10-23T08:46:09.609Z,1021.2
2022-10-23T08:47:02.463Z,1021.1
2022-10-23T08:48:02.457Z,1021.1
2022-10-23T08:49:02.368Z,1021.2
2022-10-23T08:50:02.222Z,1021.2
2022-10-23T08:51:02.231Z,1021.2
2022-10-23T08:52:02.118Z,1021.2
2022-10-23T08:53:02.040Z,1021.2
2022-10-23T08:54:02.000Z,1021.2
2022-10-23T08:55:02.187Z,1021.2
2022-10-23T08:56:02.062Z,1021.2
2022-10-23T08:57:01.919Z,1021.2
2022-10-23T08:58:01.791Z,1021.2
2022-10-23T08:59:02.707Z,1021.2
2022-10-23T09:00:02.707Z,1021.2
2022-10-23T09:01:03.029Z,1021.2
2022-10-23T09:02:02.396Z,1021.2
2022-10-23T09:03:02.277Z,1021.3
2022-10-23T09:04:02.237Z,1021.3
2022-10-23T09:05:02.275Z,1021.3
2022-10-23T09:06:02.211Z,1021.3
2022-10-23T09:07:02.285Z,1021.3
2022-10-23T09:08:02.097Z,1021.3
2022-10-23T09:09:02.036Z,1021.3
2022-10-23T09:10:01.998Z,1021.3
2022-10-23T09:11:01.848Z,1021.4
2022-10-23T09:12:01.823Z,1021.3
2022-10-23T09:13:02.732Z,1021.4
2022-10-23T09:14:02.664Z,1021.4
2022-10-23T09:15:02.667Z,1021.4
2022-10-23T09:16:02.593Z,1021.4
2022-10-23T09:17:02.666Z,1021.4
2022-10-23T09:18:02.479Z,1021.5
2022-10-23T09:19:02.407Z,1021.5
2022-10-23T09:20:02.350Z,1021.5
2022-10-23T09:21:02.325Z,1021.5
2022-10-23T09:22:02.315Z,1021.5
2022-10-23T09:23:02.276Z,1021.6
2022-10-23T09:24:02.232Z,1021.5
2022-10-23T09:25:02.144Z,1021.5
2022-10-23T09:26:02.118Z,1021.4
2022-10-23T09:27:02.245Z,1021.4
2022-10-23T09:28:06.184Z,1021.4
2022-10-23T09:29:01.922Z,1021.5
2022-10-23T09:30:01.913Z,1021.5
2022-10-23T09:31:01.821Z,1021.4
2022-10-23T09:32:02.602Z,1021.3
2022-10-23T09:33:02.583Z,1021.3
2022-10-23T09:34:02.519Z,1021.3
2022-10-23T09:35:02.453Z,1021.4
2022-10-23T09:36:02.389Z,1021.4
2022-10-23T09:37:02.308Z,1021.4
2022-10-23T09:38:02.192Z,1021.4
2022-10-23T09:39:02.062Z,1021.4
2022-10-23T09:40:01.958Z,1021.5
2022-10-23T09:41:01.829Z,1021.4
2022-10-23T09:42:01.780Z,1021.4
2022-10-23T09:43:02.783Z,1021.4
2022-10-23T09:44:02.708Z,1021.4
2022-10-23T09:45:04.982Z,1021.4
2022-10-23T09:46:01.809Z,1021.5
2022-10-23T09:47:02.450Z,1021.5
2022-10-23T09:48:02.437Z,1021.6
2022-10-23T09:49:06.246Z,1021.6
2022-10-23T09:50:02.013Z,1021.5
2022-10-23T09:51:01.941Z,1021.6
2022-10-23T09:52:01.844Z,1021.7
2022-10-23T09:53:02.771Z,1021.6
2022-10-23T09:54:02.673Z,1021.5
2022-10-23T09:55:02.650Z,1021.6
2022-10-23T09:56:02.577Z,1021.6
2022-10-23T09:57:02.617Z,1021.6
2022-10-23T09:58:02.539Z,1021.6
2022-10-23T09:59:02.509Z,1021.6
2022-10-23T10:00:02.535Z,1021.4
2022-10-23T10:01:02.891Z,1021.5
2022-10-23T10:02:02.883Z,1021.4
2022-10-23T10:03:02.730Z,1021.4
2022-10-23T10:04:02.659Z,1021.4
2022-10-23T10:05:02.615Z,1021.3
2022-10-23T10:06:02.581Z,1021.4
2022-10-23T10:07:02.522Z,1021.4
2022-10-23T10:08:02.483Z,1021.3
2022-10-23T10:09:02.425Z,1021.2
2022-10-23T10:10:02.318Z,1021.1
2022-10-23T10:11:02.291Z,1021.2
2022-10-23T10:12:02.197Z,1021.2
2022-10-23T10:13:02.225Z,1021.2
2022-10-23T10:14:02.115Z,1021.1
2022-10-23T10:15:02.134Z,1021.2
2022-10-23T10:16:01.988Z,1021.2
2022-10-23T10:17:01.952Z,1021.3
2022-10-23T10:18:01.958Z,1021.2
2022-10-23T10:19:01.781Z,1021.3
2022-10-23T10:20:07.567Z,1021.2
2022-10-23T10:21:02.366Z,1021.1
2022-10-23T10:22:02.481Z,1021.1
2022-10-23T10:23:02.367Z,1021.1
2022-10-23T10:24:02.222Z,1021.2
2022-10-23T10:25:02.297Z,1021.1
2022-10-23T10:26:02.092Z,1021.2
2022-10-23T10:27:02.049Z,1021
2022-10-23T10:28:01.849Z,1020.9
2022-10-23T10:29:01.849Z,1020.9
2022-10-23T10:30:02.759Z,1020.8
2022-10-23T10:31:02.648Z,1020.8
2022-10-23T10:32:02.599Z,1020.8
2022-10-23T10:33:02.650Z,1020.8
2022-10-23T10:34:02.511Z,1020.8
2022-10-23T10:35:02.496Z,1020.8
2022-10-23T10:36:02.466Z,1020.8
2022-10-23T10:37:02.332Z,1020.8
2022-10-23T10:38:02.297Z,1020.9
2022-10-23T10:39:02.120Z,1020.7
2022-10-23T10:40:02.192Z,1020.7
2022-10-23T10:41:02.026Z,1020.8
2022-10-23T10:42:02.050Z,1020.7
2022-10-23T10:43:01.854Z,1020.8
2022-10-23T10:44:01.881Z,1020.7
2022-10-23T10:45:02.828Z,1020.7
2022-10-23T10:46:02.667Z,1020.8
2022-10-23T10:47:02.747Z,1020.8
2022-10-23T10:48:02.825Z,1020.7
2022-10-23T10:49:02.653Z,1020.7
2022-10-23T10:50:02.698Z,1020.6
2022-10-23T10:51:02.525Z,1020.6
2022-10-23T10:52:02.662Z,1020.7
2022-10-23T10:53:02.516Z,1020.7
2022-10-23T10:54:02.739Z,1020.6
2022-10-23T10:55:02.491Z,1020.6
2022-10-23T10:56:02.723Z,1020.6
2022-10-23T10:57:02.612Z,1020.6
2022-10-23T10:58:02.465Z,1020.6
2022-10-23T10:59:02.583Z,1020.6
2022-10-23T11:00:02.542Z,1020.6
2022-10-23T11:01:02.948Z,1020.6
2022-10-23T11:02:02.291Z,1020.5
2022-10-23T11:03:02.241Z,1020.5
2022-10-23T11:04:02.050Z,1020.4
2022-10-23T11:05:02.075Z,1020.4
2022-10-23T11:06:01.877Z,1020.4
2022-10-23T11:07:01.895Z,1020.4
2022-10-23T11:08:02.851Z,1020.4
2022-10-23T11:09:21.354Z,1020.4
2022-10-23T11:10:02.212Z,1020.5
2022-10-23T11:11:02.180Z,1020.4
2022-10-23T11:12:01.976Z,1020.4
2022-10-23T11:13:02.021Z,1020.4
2022-10-23T11:14:01.838Z,1020.3
2022-10-23T11:15:01.848Z,1020.3
2022-10-23T11:16:02.785Z,1020.3
2022-10-23T11:17:02.558Z,1020.3
2022-10-23T11:18:02.605Z,1020.3
2022-10-23T11:19:02.557Z,1020.3
2022-10-23T11:20:02.450Z,1020.3
2022-10-23T11:21:02.468Z,1020.3
2022-10-23T11:22:02.450Z,1020.2
2022-10-23T11:23:02.250Z,1020.2
2022-10-23T11:24:02.424Z,1020.2
2022-10-23T11:25:02.312Z,1020.2
2022-10-23T11:26:02.163Z,1020.2
2022-10-23T11:27:02.232Z,1020.2
2022-10-23T11:28:10.665Z,1020.3
2022-10-23T11:29:02.641Z,1020.2
2022-10-23T11:30:02.706Z,1020.1
2022-10-23T11:31:02.495Z,1020.1
2022-10-23T11:32:02.023Z,1020
2022-10-23T11:33:02.026Z,1020.1
2022-10-23T11:34:01.861Z,1020.1
2022-10-23T11:35:01.897Z,1020.1
2022-10-23T11:36:02.771Z,1020.1
2022-10-23T11:37:02.710Z,1020
2022-10-23T11:38:02.748Z,1020.1
2022-10-23T11:39:02.646Z,1020.1
2022-10-23T11:40:02.658Z,1020.1
2022-10-23T11:41:02.568Z,1020
2022-10-23T11:42:02.544Z,1020.1
2022-10-23T11:43:02.562Z,1020
2022-10-23T11:44:02.373Z,1020
2022-10-23T11:45:02.435Z,1020
2022-10-23T11:46:02.313Z,1020
2022-10-23T11:47:02.250Z,1020
2022-10-23T11:48:02.237Z,1019.9
2022-10-23T11:49:02.365Z,1019.8
2022-10-23T11:50:02.254Z,1019.8
2022-10-23T11:51:05.629Z,1019.8
2022-10-23T11:52:02.498Z,1019.7
2022-10-23T11:53:16.550Z,1019.7
2022-10-23T11:54:02.637Z,1019.7
2022-10-23T11:55:02.672Z,1019.7
2022-10-23T11:56:02.515Z,1019.6
2022-10-23T11:57:02.548Z,1019.6
2022-10-23T11:58:02.540Z,1019.5
2022-10-23T11:59:02.373Z,1019.6
2022-10-23T12:00:02.433Z,1019.6
2022-10-23T12:01:02.642Z,1019.6
2022-10-23T12:02:02.641Z,1019.4
2022-10-23T12:03:02.758Z,1019.4
2022-10-23T12:04:02.682Z,1019.4
2022-10-23T12:05:02.527Z,1019.4
2022-10-23T12:06:02.698Z,1019.4
2022-10-23T12:07:02.490Z,1019.4
2022-10-23T12:08:02.527Z,1019.4
2022-10-23T12:09:02.441Z,1019.4
2022-10-23T12:10:02.225Z,1019.4
2022-10-23T12:11:02.257Z,1019.4
2022-10-23T12:12:02.231Z,1019.4
2022-10-23T12:13:02.092Z,1019.4
2022-10-23T12:14:02.289Z,1019.4
2022-10-23T12:15:02.085Z,1019.4
2022-10-23T12:16:02.116Z,1019.4
2022-10-23T12:17:01.811Z,1019.4
2022-10-23T12:18:01.973Z,1019.5
2022-10-23T12:19:01.758Z,1019.5
2022-10-23T12:20:02.820Z,1019.6
2022-10-23T12:21:02.626Z,1019.5
2022-10-23T12:22:02.681Z,1019.5
2022-10-23T12:23:02.634Z,1019.4
2022-10-23T12:24:02.528Z,1019.5
2022-10-23T12:25:02.531Z,1019.4
2022-10-23T12:26:02.375Z,1019.4
2022-10-23T12:27:02.851Z,1019.4
2022-10-23T12:28:02.734Z,1019.4
2022-10-23T12:29:02.639Z,1019.5
2022-10-23T12:30:02.677Z,1019.4
2022-10-23T12:31:02.475Z,1019.4
2022-10-23T12:32:02.333Z,1019.4
2022-10-23T12:33:02.388Z,1019.4
2022-10-23T12:34:02.274Z,1019.4
2022-10-23T12:35:02.104Z,1019.4
2022-10-23T12:36:02.262Z,1019.4